Time;durP1;ratioP1;P1;durP2;ratioP2;P2;SDS_P1;SDS_P2;PMS_P1;PMS_P2;Temp;Humidity;BMP_temperature;BMP_pressure;BME280_temperature;BME280_humidity;BME280_pressure;Samples;Min_cycle;Max_cycle;Signal;HPM_P1;HPM_P2
2021/11/20 00:01:36;;;;;;;4.25;2.42;;;12.10;92.70;;;;;;5029915;28;20132;-78
2021/11/20 00:04:34;;;;;;;3.60;2.17;;;12.10;92.70;;;;;;5049004;28;20041;-77
2021/11/20 00:07:03;;;;;;;4.88;2.13;;;12.10;92.60;;;;;;5018118;28;20033;-77
2021/11/20 00:09:31;;;;;;;4.97;2.25;;;12.10;92.70;;;;;;5029496;28;20064;-78
2021/11/20 00:12:03;;;;;;;4.22;2.80;;;12.10;92.60;;;;;;5034041;28;20124;-77
2021/11/20 00:14:32;;;;;;;7.28;2.80;;;12.10;92.60;;;;;;5033844;28;20072;-77
2021/11/20 00:17:01;;;;;;;5.03;2.75;;;12.10;92.60;;;;;;5030450;28;21165;-76
2021/11/20 00:19:30;;;;;;;5.18;2.97;;;12.10;92.60;;;;;;5031691;28;20481;-77
2021/11/20 00:21:57;;;;;;;4.80;2.50;;;12.10;92.60;;;;;;5031499;28;20688;-77
2021/11/20 00:24:33;;;;;;;4.70;2.78;;;12.10;92.60;;;;;;5033478;28;20066;-77
2021/11/20 00:27:02;;;;;;;4.18;2.95;;;12.10;92.60;;;;;;5039386;28;20084;-77
2021/11/20 00:29:57;;;;;;;4.22;3.08;;;12.00;92.60;;;;;;5033990;28;20144;-77
2021/11/20 00:32:27;;;;;;;5.55;2.88;;;12.00;92.90;;;;;;5020054;28;20055;-77
2021/11/20 00:34:58;;;;;;;4.40;2.33;;;12.00;92.60;;;;;;5030566;28;20068;-77
2021/11/20 00:37:26;;;;;;;3.78;2.10;;;12.10;92.70;;;;;;5039133;28;20045;-77
2021/11/20 00:39:53;;;;;;;3.67;2.35;;;12.00;92.60;;;;;;5014882;28;20037;-78
2021/11/20 00:42:21;;;;;;;3.35;2.40;;;12.10;92.70;;;;;;5031489;28;20564;-76
2021/11/20 00:44:48;;;;;;;3.40;2.05;;;12.10;92.60;;;;;;5014536;28;20041;-77
2021/11/20 00:47:19;;;;;;;5.80;2.50;;;12.00;92.60;;;;;;5014348;28;20042;-77
2021/11/20 00:49:46;;;;;;;3.75;1.88;;;12.10;92.60;;;;;;5031007;28;20051;-77
2021/11/20 00:52:14;;;;;;;3.15;1.70;;;12.10;92.70;;;;;;5032859;28;20041;-77
2021/11/20 00:54:42;;;;;;;2.83;1.52;;;12.00;92.60;;;;;;5031252;28;20044;-77
2021/11/20 00:57:10;;;;;;;3.92;2.17;;;12.00;92.60;;;;;;5031387;28;20366;-77
2021/11/20 00:59:38;;;;;;;3.97;2.20;;;12.10;92.60;;;;;;5032526;28;20056;-77
2021/11/20 01:02:06;;;;;;;4.65;2.72;;;12.10;92.60;;;;;;5028936;28;20048;-77
2021/11/20 01:04:34;;;;;;;4.10;2.40;;;12.00;92.60;;;;;;5029031;28;20072;-77
2021/11/20 01:07:02;;;;;;;5.10;2.70;;;12.00;92.60;;;;;;5014141;28;20064;-77
2021/11/20 01:09:34;;;;;;;6.70;2.78;;;12.00;92.60;;;;;;5029595;28;20540;-77
2021/11/20 01:12:11;;;;;;;4.05;2.47;;;12.00;92.60;;;;;;5046958;28;20072;-77
2021/11/20 01:14:41;;;;;;;4.97;2.92;;;12.00;92.60;;;;;;5026588;28;21379;-77
2021/11/20 01:17:10;;;;;;;3.78;2.47;;;12.00;92.60;;;;;;5022004;28;20052;-77
2021/11/20 01:19:38;;;;;;;5.15;3.55;;;12.00;92.50;;;;;;5027952;28;20037;-77
2021/11/20 01:22:10;;;;;;;6.75;4.32;;;12.00;92.50;;;;;;5031281;28;20056;-78
2021/11/20 01:24:57;;;;;;;7.53;5.25;;;12.00;92.50;;;;;;5048002;28;20452;-77
2021/11/20 01:27:43;;;;;;;7.10;4.18;;;12.00;92.50;;;;;;5045416;28;20126;-77
2021/11/20 01:30:31;;;;;;;7.70;4.40;;;11.90;92.50;;;;;;5018573;28;20110;-77
2021/11/20 01:32:58;;;;;;;6.45;4.53;;;11.90;92.50;;;;;;5030171;28;20128;-77
2021/11/20 01:35:28;;;;;;;8.00;5.15;;;11.90;92.50;;;;;;5013842;28;20060;-77
2021/11/20 01:38:04;;;;;;;7.95;5.28;;;11.90;92.50;;;;;;5030257;28;20069;-77
2021/11/20 01:40:37;;;;;;;8.52;5.10;;;11.90;92.50;;;;;;5031675;28;20041;-77
2021/11/20 01:43:06;;;;;;;8.27;4.55;;;11.90;92.50;;;;;;5030565;28;20037;-77
2021/11/20 01:45:56;;;;;;;5.53;4.13;;;11.90;92.50;;;;;;5026930;28;20131;-78
2021/11/20 01:48:44;;;;;;;7.00;4.38;;;11.90;92.50;;;;;;5016342;28;20072;-77
2021/11/20 01:51:22;;;;;;;6.10;4.25;;;11.90;92.50;;;;;;5044318;28;20045;-77
2021/11/20 01:54:05;;;;;;;6.63;4.30;;;11.90;92.50;;;;;;5014569;28;20124;-77
2021/11/20 01:56:44;;;;;;;6.97;4.60;;;11.90;92.50;;;;;;5018479;28;20040;-77
2021/11/20 01:59:23;;;;;;;7.32;5.03;;;11.90;92.50;;;;;;5033031;28;20496;-77
2021/11/20 02:02:24;;;;;;;7.57;4.78;;;11.90;92.50;;;;;;5037264;28;20176;-77
2021/11/20 02:05:20;;;;;;;7.35;4.57;;;11.90;92.50;;;;;;5049072;28;20469;-76
2021/11/20 02:08:13;;;;;;;7.13;4.30;;;11.90;92.50;;;;;;5010016;28;20030;-77
2021/11/20 02:10:52;;;;;;;6.80;4.10;;;11.90;92.50;;;;;;5033863;28;20052;-77
2021/11/20 02:13:23;;;;;;;6.68;4.57;;;11.80;92.50;;;;;;5035952;28;20052;-77
2021/11/20 02:16:11;;;;;;;7.85;4.70;;;11.90;92.50;;;;;;5040373;28;20059;-78
2021/11/20 02:18:43;;;;;;;6.80;4.07;;;11.90;92.50;;;;;;5034722;28;20045;-77
2021/11/20 02:21:18;;;;;;;5.65;3.45;;;11.90;92.50;;;;;;5033340;28;20047;-77
2021/11/20 02:23:52;;;;;;;4.97;3.33;;;11.80;92.50;;;;;;5035882;28;20048;-77
2021/11/20 02:26:22;;;;;;;5.03;2.80;;;11.80;92.50;;;;;;5033223;28;20374;-76
2021/11/20 02:28:54;;;;;;;5.85;3.78;;;11.90;92.50;;;;;;5013602;28;20103;-77
2021/11/20 02:31:56;;;;;;;6.57;3.63;;;11.90;92.50;;;;;;5001299;28;20045;-77
2021/11/20 02:34:39;;;;;;;7.30;4.00;;;11.90;92.50;;;;;;5014806;28;20042;-77
2021/11/20 02:37:07;;;;;;;7.93;5.40;;;11.90;92.50;;;;;;4997440;28;20053;-77
2021/11/20 02:39:40;;;;;;;7.68;5.35;;;11.80;92.50;;;;;;4983799;28;20049;-77
2021/11/20 02:42:12;;;;;;;8.23;5.65;;;11.90;92.50;;;;;;4998679;28;20541;-77
2021/11/20 02:44:42;;;;;;;8.52;4.82;;;11.80;92.40;;;;;;5013226;28;20041;-77
2021/11/20 02:47:36;;;;;;;8.85;5.28;;;11.80;92.40;;;;;;5014477;28;20128;-77
2021/11/20 02:50:06;;;;;;;7.80;4.93;;;11.80;92.40;;;;;;5014781;28;20049;-76
2021/11/20 02:52:33;;;;;;;6.57;4.15;;;11.80;92.40;;;;;;5014154;28;20045;-76
2021/11/20 02:55:00;;;;;;;7.72;5.18;;;11.80;92.40;;;;;;4995869;28;20053;-76
2021/11/20 02:57:32;;;;;;;7.60;4.90;;;11.80;92.40;;;;;;4999031;28;20104;-77
2021/11/20 02:59:59;;;;;;;7.90;5.20;;;11.80;92.40;;;;;;4995315;28;20076;-77
2021/11/20 03:02:32;;;;;;;8.50;5.55;;;11.80;92.40;;;;;;5010943;28;20073;-77
2021/11/20 03:05:01;;;;;;;6.80;4.53;;;11.80;92.40;;;;;;4995532;28;20061;-77
2021/11/20 03:07:29;;;;;;;5.25;3.38;;;11.80;92.40;;;;;;4998534;28;20076;-76
2021/11/20 03:09:56;;;;;;;6.07;4.05;;;11.80;92.50;;;;;;5012270;28;20073;-76
2021/11/20 03:12:25;;;;;;;7.20;4.50;;;11.80;92.40;;;;;;4996311;28;20071;-76
2021/11/20 03:14:56;;;;;;;9.95;6.63;;;11.80;92.40;;;;;;5012053;28;20072;-77
2021/11/20 03:17:29;;;;;;;7.72;4.93;;;11.80;92.40;;;;;;5013161;28;20056;-76
2021/11/20 03:19:58;;;;;;;7.38;4.57;;;11.80;92.40;;;;;;4998684;28;20099;-76
2021/11/20 03:22:51;;;;;;;8.23;4.72;;;11.80;92.40;;;;;;5000425;28;20042;-76
2021/11/20 03:25:19;;;;;;;7.03;4.47;;;11.80;92.40;;;;;;5001090;28;20053;-76
2021/11/20 03:27:49;;;;;;;8.15;5.22;;;11.70;92.40;;;;;;5000183;28;20517;-76
2021/11/20 03:30:17;;;;;;;9.88;5.30;;;11.70;92.40;;;;;;5018987;28;20071;-76
2021/11/20 03:32:45;;;;;;;6.28;3.72;;;11.70;92.40;;;;;;5024190;28;20139;-76
2021/11/20 03:35:18;;;;;;;8.95;6.18;;;11.70;92.40;;;;;;5028492;28;20091;-76
2021/11/20 03:37:48;;;;;;;8.07;4.78;;;11.70;92.40;;;;;;5015799;28;20052;-77
2021/11/20 03:40:17;;;;;;;8.40;5.47;;;11.70;92.40;;;;;;5025001;28;20539;-76
2021/11/20 03:42:44;;;;;;;9.32;6.10;;;11.70;92.30;;;;;;5014959;28;20099;-76
2021/11/20 03:45:12;;;;;;;9.70;6.72;;;11.70;92.30;;;;;;5023470;28;20041;-77
2021/11/20 03:47:40;;;;;;;9.95;6.90;;;11.70;92.30;;;;;;5032572;28;20163;-77
2021/11/20 03:50:11;;;;;;;11.75;6.95;;;11.70;92.30;;;;;;5031252;28;20041;-77
2021/11/20 03:52:38;;;;;;;9.05;5.88;;;11.70;92.30;;;;;;5031313;28;20443;-77
2021/11/20 03:55:08;;;;;;;10.60;6.53;;;11.70;92.30;;;;;;5031340;28;20053;-77
2021/11/20 03:57:35;;;;;;;13.02;8.23;;;11.70;92.30;;;;;;5015417;28;20044;-77
2021/11/20 04:00:10;;;;;;;12.13;7.75;;;11.70;92.20;;;;;;5030919;28;20051;-76
2021/11/20 04:02:40;;;;;;;12.63;8.48;;;11.70;92.20;;;;;;5031854;28;20049;-76
2021/11/20 04:05:11;;;;;;;10.88;7.35;;;11.70;92.10;;;;;;5031377;28;20094;-76
2021/11/20 04:07:41;;;;;;;11.68;7.53;;;11.70;92.20;;;;;;5031767;28;20029;-77
2021/11/20 04:10:10;;;;;;;13.40;7.97;;;11.70;92.10;;;;;;5015545;28;20033;-76
2021/11/20 04:12:37;;;;;;;10.45;6.57;;;11.70;92.10;;;;;;5017150;28;20095;-77
2021/11/20 04:15:06;;;;;;;10.38;6.55;;;11.60;92.10;;;;;;5030504;28;20144;-77
2021/11/20 04:17:35;;;;;;;10.85;6.43;;;11.70;92.20;;;;;;4997991;28;20051;-76
2021/11/20 04:20:05;;;;;;;10.70;6.65;;;11.70;92.10;;;;;;4995787;28;20568;-77
2021/11/20 04:22:32;;;;;;;8.95;5.93;;;11.70;92.10;;;;;;5031731;28;20049;-77
2021/11/20 04:24:59;;;;;;;8.65;5.72;;;11.70;92.20;;;;;;5014768;28;20037;-76
2021/11/20 04:27:49;;;;;;;8.85;4.65;;;11.70;92.20;;;;;;5007809;28;20053;-76
2021/11/20 04:30:26;;;;;;;8.95;5.30;;;11.60;92.20;;;;;;4995916;28;20037;-76
2021/11/20 04:32:54;;;;;;;8.68;5.18;;;11.60;92.10;;;;;;5004909;28;20056;-77
2021/11/20 04:35:23;;;;;;;11.68;6.45;;;11.60;92.20;;;;;;4994419;28;20069;-76
2021/11/20 04:37:50;;;;;;;12.70;8.10;;;11.70;92.20;;;;;;5016638;28;20049;-76
2021/11/20 04:40:22;;;;;;;13.23;8.70;;;11.70;92.00;;;;;;4998403;28;20053;-77
2021/11/20 04:42:57;;;;;;;10.85;7.22;;;11.70;92.10;;;;;;4979664;28;20153;-76
2021/11/20 04:45:27;;;;;;;10.95;6.97;;;11.70;92.00;;;;;;5007261;28;20472;-77
2021/11/20 04:47:55;;;;;;;9.55;5.93;;;11.70;92.00;;;;;;5011475;28;21833;-76
2021/11/20 04:50:37;;;;;;;8.55;5.20;;;11.70;92.10;;;;;;5010249;28;20355;-76
2021/11/20 04:53:05;;;;;;;8.95;4.97;;;11.70;92.10;;;;;;4993535;28;20065;-76
2021/11/20 04:55:32;;;;;;;9.95;5.55;;;11.70;92.00;;;;;;4999909;28;20041;-77
2021/11/20 04:58:01;;;;;;;9.32;5.82;;;11.70;92.00;;;;;;4999242;28;20054;-76
2021/11/20 05:00:35;;;;;;;11.20;5.97;;;11.70;92.00;;;;;;4994583;28;20076;-76
2021/11/20 05:03:07;;;;;;;10.50;6.53;;;11.70;92.00;;;;;;5009175;28;20056;-76
2021/11/20 05:05:43;;;;;;;11.15;6.80;;;11.70;92.00;;;;;;4996930;28;20073;-76
2021/11/20 05:08:14;;;;;;;14.55;9.40;;;11.70;91.90;;;;;;5015432;28;20237;-76
2021/11/20 05:10:43;;;;;;;14.88;8.70;;;11.60;91.90;;;;;;4994763;28;20073;-77
2021/11/20 05:13:10;;;;;;;15.77;9.23;;;11.70;91.90;;;;;;5010223;28;20053;-76
2021/11/20 05:15:40;;;;;;;13.82;7.90;;;11.70;91.80;;;;;;5010955;28;20056;-76
2021/11/20 05:18:08;;;;;;;15.00;9.15;;;11.60;91.80;;;;;;5011138;28;20052;-76
2021/11/20 05:20:44;;;;;;;14.38;8.75;;;11.60;91.80;;;;;;4996467;28;20091;-77
2021/11/20 05:23:12;;;;;;;12.27;7.20;;;11.60;91.80;;;;;;5028371;28;20044;-77
2021/11/20 05:25:40;;;;;;;10.70;6.18;;;11.70;91.90;;;;;;4993422;28;20038;-76
2021/11/20 05:28:07;;;;;;;10.90;6.18;;;11.70;91.90;;;;;;5008663;28;20063;-77
2021/11/20 05:30:38;;;;;;;10.38;6.30;;;11.70;91.90;;;;;;5006166;28;20106;-76
2021/11/20 05:33:31;;;;;;;10.75;6.00;;;11.70;91.90;;;;;;5034788;28;20076;-76
2021/11/20 05:36:02;;;;;;;12.15;7.22;;;11.70;91.80;;;;;;5012241;28;20091;-76
2021/11/20 05:38:30;;;;;;;12.25;7.25;;;11.70;91.90;;;;;;5017889;28;20052;-76
2021/11/20 05:40:57;;;;;;;12.07;6.68;;;11.70;91.80;;;;;;5034690;28;20041;-77
2021/11/20 05:43:35;;;;;;;8.95;4.90;;;11.70;91.90;;;;;;5031832;28;20068;-76
2021/11/20 05:46:12;;;;;;;10.65;5.63;;;11.70;91.90;;;;;;5020627;28;20496;-76
2021/11/20 05:48:40;;;;;;;9.60;5.85;;;11.70;91.90;;;;;;5034680;28;20585;-76
2021/11/20 05:51:07;;;;;;;9.70;5.43;;;11.60;91.90;;;;;;5021514;28;20052;-76
2021/11/20 05:53:34;;;;;;;8.45;5.03;;;11.60;91.90;;;;;;5000454;28;20045;-76
2021/11/20 05:56:03;;;;;;;13.27;6.40;;;11.60;91.90;;;;;;5017840;28;20099;-77
2021/11/20 05:58:41;;;;;;;10.80;6.07;;;11.60;91.90;;;;;;5038597;28;20045;-76
2021/11/20 06:01:12;;;;;;;10.32;5.82;;;11.60;91.90;;;;;;5018769;28;20055;-76
2021/11/20 06:03:42;;;;;;;9.18;4.97;;;11.60;91.90;;;;;;5034592;28;20033;-76
2021/11/20 06:06:09;;;;;;;11.43;6.57;;;11.60;91.90;;;;;;5022863;28;20041;-76
2021/11/20 06:08:36;;;;;;;12.45;6.07;;;11.60;91.90;;;;;;5021163;28;20067;-76
2021/11/20 06:11:08;;;;;;;10.95;6.05;;;11.60;91.90;;;;;;5004467;28;20044;-77
2021/11/20 06:13:39;;;;;;;14.23;9.00;;;11.60;91.90;;;;;;5031059;28;20390;-77
2021/11/20 06:16:13;;;;;;;13.30;7.05;;;11.60;91.80;;;;;;5034264;28;20040;-77
2021/11/20 06:18:41;;;;;;;14.48;7.13;;;11.60;91.80;;;;;;5032438;28;20041;-76
2021/11/20 06:21:09;;;;;;;11.65;7.07;;;11.60;91.80;;;;;;5002365;28;20056;-76
2021/11/20 06:23:38;;;;;;;15.00;8.00;;;11.60;91.80;;;;;;5000307;28;20037;-76
2021/11/20 06:26:11;;;;;;;14.45;7.57;;;11.60;91.80;;;;;;5017387;28;20053;-77
2021/11/20 06:28:39;;;;;;;12.52;7.75;;;11.60;91.80;;;;;;5033177;28;20051;-77
2021/11/20 06:31:13;;;;;;;12.82;6.85;;;11.50;91.70;;;;;;5031005;28;20060;-76
2021/11/20 06:33:42;;;;;;;12.10;6.80;;;11.60;91.80;;;;;;5018268;28;20103;-77
2021/11/20 06:36:47;;;;;;;11.00;6.63;;;11.60;91.80;;;;;;4996998;28;20055;-77
2021/11/20 06:39:28;;;;;;;11.85;6.55;;;11.50;91.80;;;;;;4970956;28;20065;-77
2021/11/20 06:41:55;;;;;;;15.82;8.90;;;11.60;91.80;;;;;;4975301;28;20064;-77
2021/11/20 06:44:24;;;;;;;13.88;7.82;;;11.50;91.70;;;;;;5016194;28;20153;-77
2021/11/20 06:46:52;;;;;;;15.82;8.50;;;11.50;91.70;;;;;;5026159;28;20470;-77
2021/11/20 06:49:20;;;;;;;15.88;8.77;;;11.50;91.70;;;;;;5014713;28;20051;-77
2021/11/20 06:51:54;;;;;;;14.73;7.70;;;11.50;91.70;;;;;;5014886;28;20087;-77
2021/11/20 06:54:39;;;;;;;15.45;8.13;;;11.50;91.70;;;;;;5037822;28;20052;-77
2021/11/20 07:00:30;;;;;;;13.07;6.43;;;11.50;91.70;;;;;;5045189;28;19921;-77
2021/11/20 07:03:32;;;;;;;12.63;6.95;;;11.50;91.80;;;;;;5032469;28;20049;-77
2021/11/20 07:06:17;;;;;;;11.57;6.38;;;11.50;91.70;;;;;;5031479;28;20050;-77
2021/11/20 07:08:47;;;;;;;12.48;6.50;;;11.50;91.70;;;;;;5026415;28;20041;-77
2021/11/20 07:11:15;;;;;;;14.35;8.05;;;11.50;91.80;;;;;;5029194;28;20064;-77
2021/11/20 07:13:42;;;;;;;14.52;7.93;;;11.50;91.70;;;;;;5028955;28;20049;-77
2021/11/20 07:16:12;;;;;;;14.25;7.13;;;11.50;91.70;;;;;;5015297;28;20103;-77
2021/11/20 07:18:42;;;;;;;12.68;7.40;;;11.50;91.60;;;;;;5031554;28;20052;-77
2021/11/20 07:21:28;;;;;;;12.27;6.22;;;11.50;91.60;;;;;;5021423;28;20040;-77
2021/11/20 07:24:11;;;;;;;10.90;6.28;;;11.50;91.60;;;;;;5002176;28;20084;-77
2021/11/20 07:26:39;;;;;;;13.00;7.75;;;11.50;91.60;;;;;;5027239;28;20065;-77
2021/11/20 07:29:08;;;;;;;14.93;8.13;;;11.50;91.50;;;;;;5006341;28;20120;-76
2021/11/20 07:32:02;;;;;;;14.70;8.30;;;11.50;91.50;;;;;;5015158;28;20042;-77
2021/11/20 07:34:31;;;;;;;14.43;9.35;;;11.50;91.40;;;;;;4988169;28;20041;-77
2021/11/20 07:36:59;;;;;;;16.95;10.32;;;11.50;91.40;;;;;;4997829;28;20465;-77
2021/11/20 07:39:27;;;;;;;18.20;10.30;;;11.50;91.40;;;;;;4995331;28;20050;-77
2021/11/20 07:41:55;;;;;;;20.17;10.90;;;11.50;91.30;;;;;;4994782;28;20072;-77
2021/11/20 07:44:24;;;;;;;18.38;9.70;;;11.50;91.20;;;;;;4994038;28;20072;-77
2021/11/20 07:46:53;;;;;;;18.65;10.15;;;11.50;91.20;;;;;;4995162;28;20084;-77
2021/11/20 07:49:25;;;;;;;16.25;9.43;;;11.50;91.20;;;;;;5010224;28;20205;-77
2021/11/20 07:51:54;;;;;;;21.33;11.77;;;11.50;91.20;;;;;;4993101;28;20429;-78
2021/11/20 07:54:22;;;;;;;18.60;10.18;;;11.50;91.10;;;;;;5013701;28;20468;-77
2021/11/20 07:57:07;;;;;;;18.70;10.93;;;11.50;91.10;;;;;;5000565;28;20131;-76
2021/11/20 07:59:39;;;;;;;19.38;10.75;;;11.50;91.10;;;;;;5010718;28;20498;-75
2021/11/20 08:02:38;;;;;;;20.40;11.45;;;11.50;91.10;;;;;;5014947;28;20053;-76
2021/11/20 08:05:08;;;;;;;19.10;11.57;;;11.50;91.00;;;;;;5010796;28;20136;-75
2021/11/20 08:08:04;;;;;;;17.25;9.55;;;11.50;91.00;;;;;;5013710;28;20041;-77
2021/11/20 08:11:00;;;;;;;17.48;9.80;;;11.50;91.00;;;;;;4999182;28;20045;-76
2021/11/20 08:13:29;;;;;;;19.05;10.10;;;11.50;91.00;;;;;;4982011;28;20045;-77
2021/11/20 08:16:09;;;;;;;18.80;10.90;;;11.50;91.00;;;;;;4982847;28;20088;-77
2021/11/20 08:18:56;;;;;;;23.83;14.45;;;11.60;90.90;;;;;;5011578;28;20137;-75
2021/11/20 08:21:30;;;;;;;26.00;14.45;;;11.50;90.70;;;;;;5011062;28;20046;-77
2021/11/20 08:24:02;;;;;;;23.48;14.55;;;11.50;90.60;;;;;;4996044;28;20050;-77
2021/11/20 08:26:35;;;;;;;24.38;14.95;;;11.50;90.70;;;;;;4977383;28;20057;-77
2021/11/20 08:29:09;;;;;;;22.67;13.10;;;11.50;90.60;;;;;;5016473;28;20033;-77
2021/11/20 08:31:41;;;;;;;30.38;17.45;;;11.50;90.70;;;;;;5031643;28;20045;-77
2021/11/20 08:34:21;;;;;;;;;;;11.50;90.50;;;;;;5016894;28;20594;-77
2021/11/20 08:37:08;;;;;;;31.83;18.52;;;11.50;90.50;;;;;;5034249;28;20347;-77
2021/11/20 08:39:45;;;;;;;32.85;20.38;;;11.40;90.40;;;;;;5049235;28;20045;-77
2021/11/20 08:42:15;;;;;;;36.50;19.25;;;11.50;90.40;;;;;;5031291;28;20131;-76
2021/11/20 08:44:43;;;;;;;32.97;17.85;;;11.40;90.30;;;;;;5030886;28;20060;-76
2021/11/20 08:47:15;;;;;;;28.23;16.83;;;11.50;90.40;;;;;;5041259;28;20037;-76
2021/11/20 08:49:42;;;;;;;27.88;16.20;;;11.50;90.40;;;;;;5046226;28;20512;-76
2021/11/20 08:52:13;;;;;;;28.05;16.23;;;11.50;90.40;;;;;;5000360;28;20041;-77
2021/11/20 08:54:42;;;;;;;31.25;17.50;;;11.50;90.40;;;;;;5048365;28;20049;-77
2021/11/20 08:57:10;;;;;;;27.75;16.15;;;11.50;90.40;;;;;;5008758;28;20068;-76
2021/11/20 08:59:41;;;;;;;29.58;18.13;;;11.50;90.40;;;;;;5027578;28;20095;-77
2021/11/20 09:02:48;;;;;;;27.45;16.58;;;11.50;90.40;;;;;;4959534;28;20063;-77
2021/11/20 09:05:23;;;;;;;24.13;14.68;;;11.50;90.40;;;;;;4977434;28;20076;-77
2021/11/20 09:07:57;;;;;;;22.52;13.32;;;11.50;90.40;;;;;;5014516;28;20068;-76
2021/11/20 09:10:39;;;;;;;31.08;17.45;;;11.50;90.40;;;;;;5027258;28;20595;-77
2021/11/20 09:13:50;;;;;;;27.48;16.52;;;11.50;90.30;;;;;;5030102;28;20045;-78
2021/11/20 09:16:27;;;;;;;32.50;19.25;;;11.60;90.30;;;;;;4959727;28;20081;-78
2021/11/20 09:18:58;;;;;;;25.77;16.42;;;11.50;90.30;;;;;;5025918;28;20072;-78
2021/11/20 09:21:29;;;;;;;30.10;17.63;;;11.50;90.30;;;;;;5029969;28;20056;-78
2021/11/20 09:24:17;;;;;;;22.88;13.98;;;11.50;90.30;;;;;;5020466;28;20040;-78
2021/11/20 09:26:50;;;;;;;29.40;18.27;;;11.60;90.30;;;;;;5025620;28;20037;-76
2021/11/20 09:29:19;;;;;;;29.02;17.92;;;11.50;90.20;;;;;;5013627;28;20049;-77
2021/11/20 09:31:50;;;;;;;27.13;16.67;;;11.60;90.20;;;;;;5029586;28;20045;-77
2021/11/20 09:34:18;;;;;;;25.98;15.85;;;11.60;90.20;;;;;;5027930;28;20077;-77
2021/11/20 09:36:52;;;;;;;24.13;14.68;;;11.60;90.20;;;;;;5015852;28;20056;-79
2021/11/20 09:39:37;;;;;;;23.98;15.00;;;11.60;90.20;;;;;;5015508;28;20717;-78
2021/11/20 09:42:28;;;;;;;23.92;14.93;;;11.70;90.20;;;;;;5013492;28;20045;-77
2021/11/20 09:45:01;;;;;;;22.83;14.27;;;11.70;90.20;;;;;;5013435;28;20079;-76
2021/11/20 09:47:33;;;;;;;22.15;12.82;;;11.70;90.20;;;;;;5030471;28;20037;-78
2021/11/20 09:50:28;;;;;;;23.92;15.20;;;11.80;90.20;;;;;;5028976;28;20116;-78
2021/11/20 09:53:07;;;;;;;24.38;14.27;;;11.80;90.10;;;;;;5030987;28;20051;-77
2021/11/20 09:55:41;;;;;;;28.27;16.42;;;11.80;90.00;;;;;;5043830;28;20490;-77
2021/11/20 09:58:12;;;;;;;24.90;15.50;;;11.80;89.80;;;;;;5014378;28;20053;-77
2021/11/20 10:01:01;;;;;;;27.97;17.07;;;11.80;89.70;;;;;;5030867;28;20563;-79
2021/11/20 10:03:43;;;;;;;25.02;15.38;;;11.90;89.70;;;;;;5029220;28;20108;-79
2021/11/20 10:06:45;;;;;;;27.25;16.05;;;11.80;89.60;;;;;;5031081;28;20171;-79
2021/11/20 10:09:32;;;;;;;27.55;16.23;;;11.90;89.60;;;;;;5029700;28;20036;-79
2021/11/20 10:12:26;;;;;;;26.85;15.60;;;11.90;89.50;;;;;;5026636;28;20128;-79
2021/11/20 10:15:02;;;;;;;22.75;13.95;;;11.80;89.40;;;;;;5024781;28;20076;-79
2021/11/20 10:17:32;;;;;;;23.73;14.43;;;11.90;90.00;;;;;;5048466;28;20060;-79
2021/11/20 10:20:33;;;;;;;28.67;17.40;;;11.90;89.50;;;;;;5024814;28;20416;-79
2021/11/20 10:23:23;;;;;;;28.25;16.15;;;11.90;89.20;;;;;;5049112;28;20457;-78
2021/11/20 10:26:30;;;;;;;26.80;16.50;;;11.90;89.20;;;;;;5047239;28;20560;-78
2021/11/20 10:29:23;;;;;;;30.35;16.95;;;11.90;89.20;;;;;;4982734;28;20061;-79
2021/11/20 10:32:41;;;;;;;29.98;17.23;;;11.90;89.20;;;;;;5024248;28;20041;-82
2021/11/20 10:35:24;;;;;;;31.83;18.83;;;11.90;89.20;;;;;;4987886;28;20132;-81
2021/11/20 10:38:04;;;;;;;29.75;17.48;;;11.90;89.20;;;;;;5022720;28;20041;-82
2021/11/20 10:40:34;;;;;;;32.30;19.85;;;11.80;89.10;;;;;;5011439;28;20516;-84
2021/11/20 10:43:07;;;;;;;33.58;19.73;;;11.90;89.10;;;;;;5014206;28;20049;-80
2021/11/20 10:46:16;;;;;;;31.25;19.38;;;11.80;89.00;;;;;;5005880;28;20405;-83
2021/11/20 10:49:08;;;;;;;31.23;18.40;;;11.80;89.00;;;;;;5026907;28;20052;-82
2021/11/20 10:51:50;;;;;;;35.05;20.80;;;11.80;89.00;;;;;;5013363;28;20132;-79
2021/11/20 10:54:44;;;;;;;30.08;18.10;;;11.90;89.00;;;;;;5014160;28;20060;-78
2021/11/20 10:57:37;;;;;;;31.10;18.95;;;11.80;89.00;;;;;;5012976;28;20050;-85
2021/11/20 11:00:08;;;;;;;35.40;20.05;;;11.90;88.90;;;;;;5025552;28;20132;-81
2021/11/20 11:03:06;;;;;;;32.28;18.60;;;11.80;89.00;;;;;;5015092;28;20041;-78
2021/11/20 11:06:10;;;;;;;31.20;18.33;;;11.90;89.00;;;;;;4996400;28;20378;-79
2021/11/20 11:09:14;;;;;;;31.98;20.83;;;11.80;89.00;;;;;;5029626;28;20037;-79
2021/11/20 11:11:59;;;;;;;31.58;18.90;;;11.80;88.80;;;;;;5011055;28;20049;-79
2021/11/20 11:14:49;;;;;;;34.53;20.00;;;11.80;88.90;;;;;;5013289;28;20072;-79
2021/11/20 11:17:44;;;;;;;32.50;18.52;;;11.80;88.80;;;;;;5013124;28;20045;-79
2021/11/20 11:20:44;;;;;;;29.70;17.95;;;11.80;88.80;;;;;;5009743;28;20042;-79
2021/11/20 11:23:14;;;;;;;31.42;20.67;;;11.80;89.00;;;;;;4969453;28;20046;-79
2021/11/20 11:25:59;;;;;;;34.78;19.60;;;11.80;88.90;;;;;;5012472;28;20049;-79
2021/11/20 11:37:24;;;;;;;26.83;15.38;;;11.80;89.00;;;;;;4919976;29;20048;-80
2021/11/20 11:40:29;;;;;;;29.98;16.88;;;11.80;89.20;;;;;;4908401;29;20056;-80
2021/11/20 11:43:26;;;;;;;26.25;15.25;;;11.80;89.10;;;;;;4933321;29;20044;-81
2021/11/20 11:46:26;;;;;;;35.22;18.85;;;11.80;89.20;;;;;;4925105;29;20175;-81
2021/11/20 11:49:23;;;;;;;31.30;17.35;;;11.80;89.00;;;;;;4928263;29;20095;-79
2021/11/20 11:52:27;;;;;;;31.25;17.95;;;11.90;89.20;;;;;;4916871;29;20128;-79
2021/11/20 11:55:35;;;;;;;35.17;20.23;;;11.80;89.10;;;;;;4920160;29;20123;-78
2021/11/20 11:58:13;;;;;;;35.97;19.70;;;11.80;89.00;;;;;;4923669;29;20048;-78
2021/11/20 12:01:05;;;;;;;35.58;20.63;;;11.80;89.10;;;;;;4919359;29;20052;-79
2021/11/20 12:03:40;;;;;;;38.40;22.02;;;11.80;89.10;;;;;;4938472;28;20133;-79
2021/11/20 12:06:19;;;;;;;34.08;18.40;;;11.80;89.10;;;;;;4968259;28;20106;-80
2021/11/20 12:08:56;;;;;;;30.30;17.38;;;11.80;89.30;;;;;;5021180;28;20786;-84
2021/11/20 12:11:37;;;;;;;38.03;22.23;;;11.90;89.30;;;;;;4997790;28;20041;-81
2021/11/20 12:14:13;;;;;;;38.47;22.65;;;11.90;89.10;;;;;;5023986;28;20049;-79
2021/11/20 12:16:58;;;;;;;36.63;20.02;;;11.80;89.00;;;;;;5029568;28;20053;-79
2021/11/20 12:19:49;;;;;;;38.00;20.45;;;11.80;89.00;;;;;;5009281;28;20037;-80
2021/11/20 12:22:58;;;;;;;34.38;19.83;;;11.90;89.30;;;;;;4995095;28;20061;-79
2021/11/20 12:25:46;;;;;;;31.02;18.77;;;11.90;89.20;;;;;;5007868;28;20457;-80
2021/11/20 12:28:59;;;;;;;31.17;19.08;;;11.90;89.30;;;;;;5027132;28;20072;-78
2021/11/20 12:32:07;;;;;;;31.77;18.63;;;11.90;89.20;;;;;;5031378;28;20436;-77
2021/11/20 12:34:53;;;;;;;30.92;17.95;;;11.90;89.20;;;;;;5030026;28;20056;-78
2021/11/20 12:37:59;;;;;;;27.40;16.27;;;11.80;89.20;;;;;;5031771;28;20551;-78
2021/11/20 12:41:01;;;;;;;28.38;16.38;;;11.80;89.10;;;;;;4997280;28;20045;-76
2021/11/20 12:43:49;;;;;;;24.90;14.02;;;11.90;89.20;;;;;;5030797;28;20569;-76
2021/11/20 12:46:22;;;;;;;28.95;16.25;;;11.80;89.30;;;;;;5028043;28;20033;-76
2021/11/20 12:48:52;;;;;;;22.95;14.70;;;11.90;89.40;;;;;;5031361;28;20049;-77
2021/11/20 12:51:32;;;;;;;23.85;13.23;;;11.90;89.40;;;;;;5030024;28;20064;-77
2021/11/20 12:54:22;;;;;;;19.88;12.57;;;11.90;89.40;;;;;;5028487;28;20103;-78
2021/11/20 12:57:02;;;;;;;23.85;13.98;;;11.90;89.40;;;;;;5030407;28;20051;-78
2021/11/20 12:59:29;;;;;;;21.80;12.77;;;11.90;89.50;;;;;;5038969;28;20045;-79
2021/11/20 13:02:08;;;;;;;18.40;11.93;;;11.90;89.50;;;;;;5047049;28;20040;-78
2021/11/20 13:04:40;;;;;;;18.17;11.65;;;11.90;89.60;;;;;;5029800;28;20426;-77
2021/11/20 13:07:15;;;;;;;19.42;11.70;;;11.90;90.00;;;;;;5030442;28;20037;-80
2021/11/20 13:09:51;;;;;;;21.38;12.90;;;11.90;89.50;;;;;;5030601;28;20048;-79
2021/11/20 13:12:46;;;;;;;22.08;12.95;;;11.90;89.40;;;;;;5030622;28;20045;-81
2021/11/20 13:15:28;;;;;;;25.33;14.07;;;11.90;89.40;;;;;;5016777;28;20044;-77
2021/11/20 13:18:07;;;;;;;24.67;13.55;;;11.90;89.50;;;;;;5030253;28;20090;-83
2021/11/20 13:20:39;;;;;;;21.98;13.40;;;11.90;89.50;;;;;;5031740;28;20049;-83
2021/11/20 13:23:17;;;;;;;21.70;12.63;;;11.90;89.60;;;;;;5030989;28;20477;-81
2021/11/20 13:26:21;;;;;;;22.58;12.38;;;11.90;89.70;;;;;;5030168;28;20442;-81
2021/11/20 13:28:56;;;;;;;21.50;12.18;;;11.90;89.70;;;;;;5029074;28;20042;-80
2021/11/20 13:31:32;;;;;;;19.92;11.60;;;11.90;89.80;;;;;;5028780;28;20045;-80
2021/11/20 13:34:06;;;;;;;17.80;10.38;;;11.90;89.70;;;;;;5029711;28;20120;-84
2021/11/20 13:36:34;;;;;;;19.55;11.15;;;11.80;89.80;;;;;;5029188;28;21287;-84
2021/11/20 13:39:05;;;;;;;16.95;9.80;;;11.80;89.90;;;;;;5018817;28;20045;-81